createdAt,value
2022-09-28T00:00:08.328Z,84.39
2022-09-28T00:02:40.684Z,84.87
2022-09-28T00:05:09.468Z,84.71
2022-09-28T00:07:38.587Z,84.90
2022-09-28T00:10:07.397Z,84.87
2022-09-28T00:12:35.360Z,84.71
2022-09-28T00:15:03.502Z,85.07
2022-09-28T00:17:31.314Z,85.20
2022-09-28T00:19:59.071Z,84.72
2022-09-28T00:22:26.857Z,84.33
2022-09-28T00:24:55.968Z,84.07
2022-09-28T00:27:23.774Z,84.27
2022-09-28T00:29:51.497Z,84.29
2022-09-28T00:32:21.489Z,83.64
2022-09-28T00:34:49.274Z,84.01
2022-09-28T00:37:18.833Z,83.98
2022-09-28T00:39:47.925Z,83.55
2022-09-28T00:42:19.630Z,83.80
2022-09-28T00:44:48.997Z,84.01
2022-09-28T00:47:25.755Z,83.43
2022-09-28T00:49:56.711Z,83.34
2022-09-28T00:52:27.933Z,83.31
2022-09-28T00:54:57.137Z,83.33
2022-09-28T00:57:26.874Z,83.89
2022-09-28T00:59:54.664Z,84.56
2022-09-28T01:02:22.598Z,83.83
2022-09-28T01:04:51.201Z,83.89
2022-09-28T01:07:19.739Z,83.78
2022-09-28T01:09:48.517Z,83.77
2022-09-28T01:12:16.320Z,83.47
2022-09-28T01:14:45.902Z,83.23
2022-09-28T01:17:16.074Z,83.12
2022-09-28T01:20:37.452Z,82.73
2022-09-28T01:23:26.301Z,82.46
2022-09-28T01:25:56.567Z,82.19
2022-09-28T01:28:28.639Z,82.21
2022-09-28T01:31:04.547Z,82.28
2022-09-28T01:33:36.550Z,81.62
2022-09-28T01:36:08.145Z,81.53
2022-09-28T01:38:39.841Z,81.83
2022-09-28T01:41:08.329Z,81.82
2022-09-28T01:43:40.463Z,81.72
2022-09-28T01:46:13.208Z,81.46
2022-09-28T01:48:43.430Z,81.47
2022-09-28T01:51:13.985Z,80.90
2022-09-28T01:53:44.581Z,80.41
2022-09-28T01:56:19.652Z,80.46
2022-09-28T01:58:51.976Z,80.49
2022-09-28T02:01:23.533Z,80.36
2022-09-28T02:03:56.144Z,80.88
2022-09-28T02:06:27.765Z,80.59
2022-09-28T02:08:59.233Z,80.58
2022-09-28T02:11:38.219Z,80.33
2022-09-28T02:14:10.977Z,80.60
2022-09-28T02:16:41.479Z,80.27
2022-09-28T02:19:11.105Z,80.76
2022-09-28T02:21:43.013Z,80.70
2022-09-28T02:24:21.215Z,80.80
2022-09-28T02:26:51.090Z,81.46
2022-09-28T02:29:20.163Z,81.79
2022-09-28T02:31:48.073Z,81.42
2022-09-28T02:34:15.922Z,81.56
2022-09-28T02:36:44.918Z,81.82
2022-09-28T02:39:15.128Z,81.03
2022-09-28T02:41:51.531Z,80.85
2022-09-28T02:44:37.417Z,81.08
2022-09-28T02:47:08.994Z,81.33
2022-09-28T02:49:48.115Z,81.76
2022-09-28T02:52:34.684Z,82.50
2022-09-28T02:55:25.006Z,81.79
2022-09-28T02:58:08.665Z,81.82
2022-09-28T03:00:42.660Z,81.69
2022-09-28T03:03:15.117Z,81.03
2022-09-28T03:05:48.738Z,80.98
2022-09-28T03:08:23.638Z,80.74
2022-09-28T03:10:56.614Z,81.79
2022-09-28T03:13:24.940Z,81.30
2022-09-28T03:15:54.059Z,80.96
2022-09-28T03:18:21.807Z,81.07
2022-09-28T03:20:50.104Z,81.16
2022-09-28T03:23:24.799Z,81.40
2022-09-28T03:25:53.593Z,81.05
2022-09-28T03:28:22.018Z,80.87
2022-09-28T03:30:50.297Z,80.92
2022-09-28T03:33:20.280Z,81.59
2022-09-28T03:35:49.045Z,81.74
2022-09-28T03:38:17.193Z,81.97
2022-09-28T03:40:45.135Z,81.40
2022-09-28T03:43:12.946Z,81.19
2022-09-28T03:45:40.857Z,81.36
2022-09-28T03:48:08.635Z,81.31
2022-09-28T03:50:37.780Z,81.17
2022-09-28T03:53:05.978Z,81.68
2022-09-28T03:55:33.793Z,81.71
2022-09-28T03:58:01.502Z,82.02
2022-09-28T04:00:30.928Z,81.89
2022-09-28T04:02:58.736Z,82.13
2022-09-28T04:05:26.648Z,81.62
2022-09-28T04:07:57.764Z,80.70
2022-09-28T04:10:25.780Z,80.78
2022-09-28T04:12:55.729Z,80.52
2022-09-28T04:15:23.638Z,80.42
2022-09-28T04:17:51.552Z,80.71
2022-09-28T04:20:36.918Z,80.20
2022-09-28T04:23:09.926Z,79.77
2022-09-28T04:25:37.736Z,79.79
2022-09-28T04:28:23.104Z,79.65
2022-09-28T04:30:50.938Z,80.39
2022-09-28T04:33:18.701Z,80.44
2022-09-28T04:35:46.425Z,80.67
2022-09-28T04:38:15.592Z,80.56
2022-09-28T04:40:43.516Z,80.63
2022-09-28T04:43:11.378Z,80.83
2022-09-28T04:45:39.275Z,81.14
2022-09-28T04:48:11.192Z,80.58
2022-09-28T04:51:05.790Z,79.98
2022-09-28T04:53:35.090Z,79.52
2022-09-28T04:56:04.553Z,79.40
2022-09-28T04:58:32.511Z,80.20
2022-09-28T05:01:01.891Z,79.74
2022-09-28T05:03:49.595Z,79.81
2022-09-28T05:06:34.830Z,80.42
2022-09-28T05:09:07.678Z,79.14
2022-09-28T05:11:35.460Z,79.29
2022-09-28T05:14:05.795Z,80.18
2022-09-28T05:16:34.159Z,80.13
2022-09-28T05:19:34.875Z,80.22
2022-09-28T05:22:06.007Z,80.06
2022-09-28T05:24:40.355Z,79.71
2022-09-28T05:27:08.329Z,79.35
2022-09-28T05:29:36.138Z,79.27
2022-09-28T05:32:41.201Z,79.78
2022-09-28T05:35:30.573Z,79.21
2022-09-28T05:38:00.107Z,78.84
2022-09-28T05:40:29.287Z,78.99
2022-09-28T05:43:00.239Z,79.34
2022-09-28T05:45:28.032Z,78.86
2022-09-28T05:47:55.911Z,78.65
2022-09-28T05:50:24.253Z,78.21
2022-09-28T05:53:02.485Z,78.43
2022-09-28T05:55:31.832Z,79.32
2022-09-28T05:58:00.304Z,79.86
2022-09-28T06:00:28.683Z,80.10
2022-09-28T06:03:03.403Z,79.44
2022-09-28T06:05:36.102Z,79.72
2022-09-28T06:08:05.386Z,79.01
2022-09-28T06:10:35.321Z,79.69
2022-09-28T06:13:03.725Z,79.88
2022-09-28T06:15:32.613Z,80.11
2022-09-28T06:18:03.093Z,79.50
2022-09-28T06:20:44.613Z,79.44
2022-09-28T06:23:16.827Z,79.92
2022-09-28T06:25:46.132Z,79.25
2022-09-28T06:28:15.429Z,79.10
2022-09-28T06:30:44.005Z,78.40
2022-09-28T06:33:16.328Z,78.22
2022-09-28T06:35:44.252Z,78.28
2022-09-28T06:38:12.050Z,78.06
2022-09-28T06:40:39.990Z,77.54
2022-09-28T06:43:11.857Z,76.85
2022-09-28T06:45:58.313Z,76.96
2022-09-28T06:48:45.109Z,75.91
2022-09-28T06:51:21.042Z,75.69
2022-09-28T06:53:57.577Z,75.26
2022-09-28T06:56:50.768Z,75.32
2022-09-28T06:59:21.819Z,74.87
2022-09-28T07:01:49.617Z,74.92
2022-09-28T07:04:49.085Z,74.74
2022-09-28T07:07:36.996Z,74.61
2022-09-28T07:10:25.773Z,74.44
2022-09-28T07:13:47.542Z,73.99
2022-09-28T07:16:12.254Z,74.00
2022-09-28T07:18:40.411Z,73.31
2022-09-28T07:21:11.249Z,73.06
2022-09-28T07:23:52.372Z,72.85
2022-09-28T07:26:25.695Z,72.18
2022-09-28T07:29:04.986Z,71.45
2022-09-28T07:31:41.555Z,71.56
2022-09-28T07:34:28.022Z,72.78
2022-09-28T07:37:08.898Z,72.66
2022-09-28T07:39:56.962Z,72.54
2022-09-28T07:42:24.573Z,72.16
2022-09-28T07:44:52.412Z,71.98
2022-09-28T07:47:30.768Z,72.42
2022-09-28T07:50:21.141Z,73.64
2022-09-28T07:53:01.518Z,74.58
2022-09-28T07:55:32.109Z,74.82
2022-09-28T07:58:25.907Z,76.10
2022-09-28T08:01:04.834Z,76.37
2022-09-28T08:03:35.200Z,76.62
2022-09-28T08:06:04.295Z,75.74
2022-09-28T08:08:32.023Z,75.82
2022-09-28T08:11:00.218Z,75.82
2022-09-28T08:14:02.444Z,77.10
2022-09-28T08:16:51.996Z,76.66
2022-09-28T08:20:00.568Z,76.89
2022-09-28T08:22:32.113Z,75.44
2022-09-28T08:25:00.806Z,75.44
2022-09-28T08:27:29.892Z,76.45
2022-09-28T08:29:57.670Z,75.79
2022-09-28T08:32:48.702Z,75.43
2022-09-28T08:35:38.971Z,74.76
2022-09-28T08:38:30.933Z,74.62
2022-09-28T08:41:15.979Z,74.48
2022-09-28T08:44:10.098Z,73.95
2022-09-28T08:47:30.732Z,75.09
2022-09-28T08:50:24.131Z,71.67
2022-09-28T08:53:21.892Z,71.80
2022-09-28T08:56:07.778Z,71.82
2022-09-28T08:58:39.295Z,71.57
2022-09-28T09:01:08.922Z,73.31
2022-09-28T09:03:39.442Z,72.86
2022-09-28T09:06:36.856Z,72.88
2022-09-28T09:09:35.587Z,71.78
2022-09-28T09:12:08.201Z,72.81
2022-09-28T09:14:54.664Z,73.80
2022-09-28T09:17:30.604Z,71.92
2022-09-28T09:20:16.342Z,70.96
2022-09-28T09:23:01.514Z,70.81
2022-09-28T09:25:38.610Z,72.51
2022-09-28T09:28:35.360Z,72.77
2022-09-28T09:31:09.678Z,72.08
2022-09-28T09:33:55.025Z,72.04
2022-09-28T09:37:04.141Z,70.78
2022-09-28T09:40:01.572Z,71.26
2022-09-28T09:42:59.614Z,70.75
2022-09-28T09:46:01.190Z,68.22
2022-09-28T09:49:02.075Z,67.53
2022-09-28T09:51:37.782Z,66.95
2022-09-28T09:54:07.547Z,66.35
2022-09-28T09:56:40.711Z,68.58
2022-09-28T09:59:19.189Z,69.25
2022-09-28T10:02:16.789Z,68.99
2022-09-28T10:04:54.986Z,69.77
2022-09-28T10:07:34.977Z,68.66
2022-09-28T10:10:03.903Z,70.01
2022-09-28T10:12:45.983Z,71.07
2022-09-28T10:15:25.693Z,70.49
2022-09-28T10:18:07.680Z,70.50
2022-09-28T10:20:54.361Z,70.23
2022-09-28T10:23:33.895Z,69.33
2022-09-28T10:26:04.850Z,69.70
2022-09-28T10:28:35.582Z,70.45
2022-09-28T10:31:40.672Z,70.87
2022-09-28T10:34:16.929Z,70.51
2022-09-28T10:36:48.903Z,70.36
2022-09-28T10:39:38.458Z,68.24
2022-09-28T10:42:08.567Z,69.00
2022-09-28T10:44:50.549Z,67.50
2022-09-28T10:47:37.538Z,65.41
2022-09-28T10:50:21.215Z,64.48
2022-09-28T10:52:50.704Z,65.40
2022-09-28T10:56:02.292Z,65.83
2022-09-28T10:58:35.204Z,64.21
2022-09-28T11:01:08.135Z,63.06
2022-09-28T11:03:48.441Z,61.95
2022-09-28T11:06:16.513Z,60.55
2022-09-28T11:08:45.695Z,60.53
2022-09-28T11:11:20.411Z,60.38
2022-09-28T11:13:55.215Z,61.23
2022-09-28T11:16:29.495Z,61.01
2022-09-28T11:19:00.568Z,62.98
2022-09-28T11:21:32.104Z,62.38
2022-09-28T11:24:08.284Z,61.86
2022-09-28T11:26:43.567Z,60.68
2022-09-28T11:29:21.295Z,61.11
2022-09-28T11:32:01.306Z,58.97
2022-09-28T11:34:54.905Z,58.22
2022-09-28T11:37:40.170Z,57.23
2022-09-28T11:40:18.350Z,56.09
2022-09-28T11:42:51.057Z,56.17
2022-09-28T11:45:34.939Z,54.17
2022-09-28T11:48:04.029Z,53.25
2022-09-28T11:50:48.013Z,52.06
2022-09-28T11:53:23.294Z,52.70
2022-09-28T11:55:59.548Z,53.30
2022-09-28T11:58:31.589Z,51.83
2022-09-28T12:01:04.189Z,51.45
2022-09-28T12:03:53.687Z,52.06
2022-09-28T12:06:25.693Z,53.03
2022-09-28T12:08:58.223Z,54.93
2022-09-28T12:11:52.569Z,54.79
2022-09-28T12:14:27.524Z,55.89
2022-09-28T12:17:08.034Z,57.04
2022-09-28T12:19:40.657Z,57.64
2022-09-28T12:22:18.413Z,56.60
2022-09-28T12:24:47.519Z,52.60
2022-09-28T12:27:18.706Z,53.79
2022-09-28T12:29:51.555Z,54.92
2022-09-28T12:32:26.933Z,56.24
2022-09-28T12:34:54.847Z,56.14
2022-09-28T12:37:35.133Z,56.29
2022-09-28T12:40:33.291Z,53.26
2022-09-28T12:43:17.555Z,55.86
2022-09-28T12:46:11.434Z,55.50
2022-09-28T12:49:24.119Z,55.50
2022-09-28T12:51:45.329Z,50.92
2022-09-28T12:54:27.970Z,50.12
2022-09-28T12:57:05.277Z,51.32
2022-09-28T12:59:36.395Z,50.51
2022-09-28T13:02:42.987Z,49.14
2022-09-28T13:05:22.475Z,50.26
2022-09-28T13:07:54.397Z,52.49
2022-09-28T13:10:32.532Z,53.38
2022-09-28T13:13:22.061Z,54.52
2022-09-28T13:15:55.742Z,55.41
2022-09-28T13:18:29.164Z,56.21
2022-09-28T13:21:11.873Z,57.83
2022-09-28T13:23:42.476Z,61.35
2022-09-28T13:26:16.301Z,64.35
2022-09-28T13:28:45.313Z,65.30
2022-09-28T13:31:14.026Z,65.26
2022-09-28T13:33:42.994Z,65.36
2022-09-28T13:36:38.572Z,65.11
2022-09-28T13:39:38.557Z,66.04
2022-09-28T13:42:09.091Z,66.30
2022-09-28T13:44:59.484Z,66.25
2022-09-28T13:47:42.080Z,67.21
2022-09-28T13:50:20.713Z,67.26
2022-09-28T13:52:51.043Z,67.71
2022-09-28T13:55:34.534Z,66.87
2022-09-28T13:58:05.225Z,67.20
2022-09-28T14:00:37.102Z,63.95
2022-09-28T14:03:14.877Z,61.30
2022-09-28T14:06:02.328Z,60.02
2022-09-28T14:08:36.455Z,59.60
2022-09-28T14:11:49.875Z,58.38
2022-09-28T14:14:52.684Z,58.71
2022-09-28T14:17:54.919Z,59.25
2022-09-28T14:20:26.184Z,59.89
2022-09-28T14:23:15.563Z,57.14
2022-09-28T14:25:45.655Z,55.10
2022-09-28T14:28:32.081Z,54.61
2022-09-28T14:31:08.318Z,53.75
2022-09-28T14:33:38.769Z,52.65
2022-09-28T14:36:07.745Z,51.98
2022-09-28T14:38:54.764Z,52.83
2022-09-28T14:41:29.488Z,54.07
2022-09-28T14:44:08.967Z,56.79
2022-09-28T14:46:40.492Z,56.48
2022-09-28T14:49:42.786Z,57.20
2022-09-28T14:52:11.764Z,56.55
2022-09-28T14:54:43.279Z,57.30
2022-09-28T14:57:17.512Z,58.62
2022-09-28T14:59:46.570Z,59.35
2022-09-28T15:02:21.111Z,59.57
2022-09-28T15:04:51.556Z,59.16
2022-09-28T15:07:24.882Z,59.19
2022-09-28T15:09:54.021Z,60.23
2022-09-28T15:12:23.318Z,60.19
2022-09-28T15:14:55.121Z,60.19
2022-09-28T15:17:26.912Z,60.40
2022-09-28T15:20:05.936Z,60.46
2022-09-28T15:22:34.909Z,61.89
2022-09-28T15:25:04.718Z,62.95
2022-09-28T15:27:36.101Z,62.38
2022-09-28T15:30:19.608Z,60.65
2022-09-28T15:32:48.744Z,60.16
2022-09-28T15:35:20.535Z,61.53
2022-09-28T15:37:52.034Z,62.22
2022-09-28T15:40:23.722Z,63.95
2022-09-28T15:42:53.906Z,63.70
2022-09-28T15:45:30.768Z,62.32
2022-09-28T15:48:20.828Z,62.94
2022-09-28T15:51:15.842Z,63.03
2022-09-28T15:53:48.478Z,64.16
2022-09-28T15:56:16.326Z,64.07
2022-09-28T15:58:44.318Z,65.49
2022-09-28T16:01:23.145Z,66.12
2022-09-28T16:03:52.363Z,66.50
2022-09-28T16:06:20.150Z,67.11
2022-09-28T16:08:48.859Z,67.93
2022-09-28T16:11:19.870Z,68.21
2022-09-28T16:13:56.050Z,69.30
2022-09-28T16:16:27.393Z,69.35
2022-09-28T16:18:58.527Z,68.04
2022-09-28T16:21:45.554Z,68.82
2022-09-28T16:24:21.553Z,68.82
2022-09-28T16:26:50.246Z,69.13
2022-09-28T16:29:26.575Z,70.12
2022-09-28T16:31:55.336Z,69.59
2022-09-28T16:34:27.280Z,69.80
2022-09-28T16:36:55.236Z,69.57
2022-09-28T16:39:23.049Z,70.27
2022-09-28T16:41:53.715Z,69.65
2022-09-28T16:44:25.970Z,69.46
2022-09-28T16:46:55.706Z,69.17
2022-09-28T16:49:26.786Z,69.05
2022-09-28T16:51:54.630Z,70.18
2022-09-28T16:54:41.707Z,69.92
2022-09-28T16:57:11.646Z,70.19
2022-09-28T16:59:39.584Z,68.59
2022-09-28T17:02:35.295Z,67.45
2022-09-28T17:05:07.037Z,66.91
2022-09-28T17:07:34.896Z,67.35
2022-09-28T17:10:02.630Z,68.09
2022-09-28T17:12:30.413Z,68.56
2022-09-28T17:15:00.317Z,68.43
2022-09-28T17:17:29.943Z,69.31
2022-09-28T17:19:57.695Z,69.09
2022-09-28T17:22:26.807Z,68.37
2022-09-28T17:24:54.532Z,68.50
2022-09-28T17:27:22.292Z,68.48
2022-09-28T17:29:51.303Z,68.33
2022-09-28T17:32:20.203Z,68.06
2022-09-28T17:34:55.787Z,68.63
2022-09-28T17:37:30.183Z,68.00
2022-09-28T17:39:57.933Z,68.53
2022-09-28T17:42:25.625Z,68.63
2022-09-28T17:44:53.431Z,68.29
2022-09-28T17:47:21.195Z,68.38
2022-09-28T17:49:50.472Z,68.24
2022-09-28T17:52:18.223Z,68.89
2022-09-28T17:54:47.304Z,69.30
2022-09-28T17:57:15.036Z,69.46
2022-09-28T17:59:42.871Z,69.75
2022-09-28T18:02:11.135Z,69.79
2022-09-28T18:04:51.688Z,69.58
2022-09-28T18:07:20.146Z,69.40
2022-09-28T18:09:56.605Z,69.73
2022-09-28T18:12:24.986Z,69.51
2022-09-28T18:14:52.694Z,69.61
2022-09-28T18:17:20.468Z,69.83
2022-09-28T18:19:48.232Z,70.26
2022-09-28T18:22:15.992Z,70.42
2022-09-28T18:24:43.742Z,71.11
2022-09-28T18:27:13.056Z,70.59
2022-09-28T18:29:40.773Z,71.04
2022-09-28T18:32:08.701Z,70.81
2022-09-28T18:34:37.400Z,70.75
2022-09-28T18:37:06.155Z,70.87
2022-09-28T18:39:35.876Z,71.29
2022-09-28T18:42:04.160Z,71.18
2022-09-28T18:44:33.855Z,71.18
2022-09-28T18:47:02.419Z,71.48
2022-09-28T18:49:31.506Z,70.92
2022-09-28T18:51:59.221Z,71.48
2022-09-28T18:54:27.832Z,71.13
2022-09-28T18:56:57.112Z,71.38
2022-09-28T18:59:25.129Z,71.05
2022-09-28T19:01:54.343Z,70.95
2022-09-28T19:04:22.269Z,71.55
2022-09-28T19:06:52.263Z,71.88
2022-09-28T19:09:21.156Z,72.17
2022-09-28T19:11:50.741Z,72.12
2022-09-28T19:14:18.540Z,71.79
2022-09-28T19:16:46.408Z,71.58
2022-09-28T19:19:19.290Z,72.31
2022-09-28T19:21:47.661Z,72.76
2022-09-28T19:24:16.297Z,72.82
2022-09-28T19:26:45.109Z,72.78
2022-09-28T19:29:13.185Z,72.96
2022-09-28T19:31:41.574Z,73.03
2022-09-28T19:34:11.917Z,73.46
2022-09-28T19:36:43.422Z,74.11
2022-09-28T19:39:14.411Z,74.38
2022-09-28T19:41:44.438Z,74.52
2022-09-28T19:44:24.260Z,74.45
2022-09-28T19:46:53.662Z,74.64
2022-09-28T19:49:22.328Z,74.31
2022-09-28T19:52:11.437Z,74.40
2022-09-28T19:54:41.131Z,74.82
2022-09-28T19:57:09.124Z,74.54
2022-09-28T19:59:37.352Z,74.13
2022-09-28T20:02:05.830Z,73.59
2022-09-28T20:04:33.710Z,73.37
2022-09-28T20:07:02.849Z,73.39
2022-09-28T20:09:30.707Z,72.92
2022-09-28T20:11:58.504Z,72.90
2022-09-28T20:14:31.213Z,72.78
2022-09-28T20:17:01.904Z,73.42
2022-09-28T20:19:29.565Z,73.49
2022-09-28T20:21:58.522Z,74.10
2022-09-28T20:24:28.699Z,74.71
2022-09-28T20:26:56.593Z,74.74
2022-09-28T20:29:24.910Z,74.88
2022-09-28T20:31:52.753Z,74.60
2022-09-28T20:34:20.557Z,73.90
2022-09-28T20:36:48.365Z,73.71
2022-09-28T20:39:16.268Z,73.17
2022-09-28T20:41:47.108Z,73.74
2022-09-28T20:44:14.903Z,73.56
2022-09-28T20:46:43.970Z,74.18
2022-09-28T20:49:11.809Z,74.55
2022-09-28T20:51:39.542Z,74.64
2022-09-28T20:54:07.410Z,74.97
2022-09-28T20:56:38.223Z,74.47
2022-09-28T20:59:07.899Z,74.97
2022-09-28T21:01:36.070Z,75.04
2022-09-28T21:04:05.645Z,75.52
2022-09-28T21:06:34.653Z,75.35
2022-09-28T21:09:02.965Z,75.42
2022-09-28T21:11:31.154Z,75.51
2022-09-28T21:13:59.997Z,75.41
2022-09-28T21:16:30.826Z,75.58
2022-09-28T21:18:58.638Z,75.70
2022-09-28T21:21:26.967Z,76.12
2022-09-28T21:23:54.896Z,76.00
2022-09-28T21:26:25.827Z,76.47
2022-09-28T21:28:54.053Z,76.29
2022-09-28T21:31:27.510Z,75.59
2022-09-28T21:33:58.260Z,75.66
2022-09-28T21:36:26.427Z,75.66
2022-09-28T21:38:55.045Z,75.89
2022-09-28T21:41:22.887Z,75.77
2022-09-28T21:43:50.607Z,75.93
2022-09-28T21:46:18.578Z,76.44
2022-09-28T21:48:46.351Z,76.60
2022-09-28T21:51:16.010Z,76.70
2022-09-28T21:53:43.732Z,76.62
2022-09-28T21:56:13.224Z,76.27
2022-09-28T21:58:41.153Z,76.72
2022-09-28T22:01:11.035Z,76.49
2022-09-28T22:03:38.999Z,76.45
2022-09-28T22:06:07.669Z,76.08
2022-09-28T22:08:37.291Z,76.15
2022-09-28T22:11:06.602Z,76.56
2022-09-28T22:13:36.250Z,76.55
2022-09-28T22:16:04.401Z,76.86
2022-09-28T22:18:33.943Z,76.85
2022-09-28T22:21:02.124Z,76.57
2022-09-28T22:23:30.277Z,76.37
2022-09-28T22:26:04.334Z,76.08
2022-09-28T22:28:32.324Z,76.23
2022-09-28T22:31:00.108Z,76.97
2022-09-28T22:33:28.413Z,76.85
2022-09-28T22:35:56.362Z,76.94
2022-09-28T22:38:25.573Z,77.21
2022-09-28T22:40:55.493Z,77.24
2022-09-28T22:43:27.356Z,76.70
2022-09-28T22:46:02.924Z,76.53
2022-09-28T22:48:30.867Z,76.20
2022-09-28T22:50:58.766Z,75.92
2022-09-28T22:53:26.608Z,76.16
2022-09-28T22:55:54.421Z,76.00
2022-09-28T22:58:22.202Z,76.02
2022-09-28T23:00:51.422Z,75.96
2022-09-28T23:03:19.333Z,75.57
2022-09-28T23:05:53.969Z,75.55
2022-09-28T23:08:22.116Z,75.12
2022-09-28T23:10:49.893Z,75.96
2022-09-28T23:13:17.693Z,75.94
2022-09-28T23:15:45.504Z,76.02
2022-09-28T23:18:14.638Z,76.75
2022-09-28T23:20:42.345Z,76.80
2022-09-28T23:23:10.072Z,76.86
2022-09-28T23:25:37.802Z,77.06
2022-09-28T23:28:05.570Z,77.13
2022-09-28T23:30:33.280Z,77.31
2022-09-28T23:33:01.148Z,77.75
2022-09-28T23:35:30.193Z,77.97
2022-09-28T23:37:57.979Z,78.16
2022-09-28T23:40:25.995Z,78.00
2022-09-28T23:42:53.780Z,78.06
2022-09-28T23:45:21.544Z,77.62
2022-09-28T23:47:49.326Z,77.45
2022-09-28T23:50:17.121Z,77.64
2022-09-28T23:52:48.729Z,78.07
2022-09-28T23:55:16.678Z,77.77
2022-09-28T23:57:44.590Z,78.06
